Terminal Aerodrome Forecast
Issued by NWS Wilmington, NC

Home | Current Version | Previous Version | Text Only | Print | Product List | Glossary On
Versions: 1 2 3 4 5 6 7 8 9 10 11 12 13 14 15 16 17 18 19 20 21 22 23 24 25 26 27 28 29 30 31 32
000
FTUS42 KILM 271000 AAC
TAFLBT
TAF AMD
KLBT 271000Z 2710/2806 01004KT 1/4SM FG SKC
      TEMPO 2710/2712 3/4SM BR BKN004
     FM271400 32008KT P6SM FEW050 SCT250=

USA.gov is the U.S. government's official web portal to all federal, state and local government web resources and services.